Time;durP1;ratioP1;P1;durP2;ratioP2;P2;SDS_P1;SDS_P2;PMS_P1;PMS_P2;Temp;Humidity;BMP_temperature;BMP_pressure;BME280_temperature;BME280_humidity;BME280_pressure;Samples;Min_cycle;Max_cycle;Signal;HPM_P1;HPM_P2
2021/04/25 00:00:18;;;;;;;0.20;0.20;;;;;;;-0.87;73.98;101238.59;1803877;78;21534;-45
2021/04/25 00:02:45;;;;;;;0.30;0.30;;;;;;;-0.90;74.08;101236.27;1823471;78;21121;-45
2021/04/25 00:05:15;;;;;;;0.10;0.10;;;;;;;-0.95;74.25;101235.98;1823518;78;21512;-45
2021/04/25 00:07:43;;;;;;;0.10;0.10;;;;;;;-0.99;74.40;101234.70;1807185;78;21114;-45
2021/04/25 00:10:11;;;;;;;0.50;0.50;;;;;;;-1.02;74.65;101240.41;1824204;77;21150;-45
2021/04/25 00:12:41;;;;;;;0.00;0.00;;;;;;;-1.05;74.80;101234.08;1846051;77;21537;-45
2021/04/25 00:15:20;;;;;;;0.10;0.10;;;;;;;-1.07;74.97;101231.27;1846079;77;21143;-45
2021/04/25 00:17:48;;;;;;;0.00;0.00;;;;;;;-1.10;75.16;101237.83;1806996;77;21409;-45
2021/04/25 00:20:17;;;;;;;0.53;0.53;;;;;;;-1.15;75.40;101230.84;1776264;79;21145;-45
2021/04/25 00:22:45;;;;;;;0.23;0.23;;;;;;;-1.18;75.68;101231.22;1804162;79;21992;-45
2021/04/25 00:25:13;;;;;;;0.10;0.10;;;;;;;-1.18;75.86;101231.22;1803835;78;21747;-45
2021/04/25 00:27:40;;;;;;;0.00;0.00;;;;;;;-1.19;76.00;101225.50;1813206;77;21125;-45
2021/04/25 00:30:10;;;;;;;0.25;0.25;;;;;;;-1.20;76.19;101229.22;1823507;78;21110;-45
2021/04/25 00:32:37;;;;;;;0.00;0.00;;;;;;;-1.19;76.34;101226.84;1823423;78;21130;-45
2021/04/25 00:35:06;;;;;;;0.00;0.00;;;;;;;-1.19;76.41;101223.65;1814027;78;21129;-45
2021/04/25 00:37:34;;;;;;;0.10;0.10;;;;;;;-1.21;76.53;101225.70;1804229;78;21149;-45
2021/04/25 00:40:02;;;;;;;0.00;0.00;;;;;;;-1.24;76.66;101223.87;1803951;78;21515;-45
2021/04/25 00:42:29;;;;;;;0.10;0.10;;;;;;;-1.26;76.75;101223.23;1804070;79;21130;-45
2021/04/25 00:44:57;;;;;;;0.10;0.10;;;;;;;-1.29;76.89;101215.04;1822218;77;21086;-45
2021/04/25 00:47:24;;;;;;;0.10;0.10;;;;;;;-1.30;77.00;101218.75;1775603;77;21157;-45
2021/04/25 00:49:52;;;;;;;0.08;0.08;;;;;;;-1.31;77.10;101212.56;1791026;80;21164;-45
2021/04/25 00:52:20;;;;;;;0.10;0.10;;;;;;;-1.32;77.17;101210.05;1771966;80;21128;-45
2021/04/25 00:54:47;;;;;;;0.37;0.37;;;;;;;-1.34;77.25;101204.86;1743238;79;21426;-45
2021/04/25 00:57:16;;;;;;;0.00;0.00;;;;;;;-1.36;77.43;101210.08;1812189;79;21166;-45
2021/04/25 00:59:43;;;;;;;0.00;0.00;;;;;;;-1.41;77.52;101208.45;1742178;79;21162;-45
2021/04/25 01:02:13;;;;;;;0.23;0.23;;;;;;;-1.45;77.61;101201.30;1801304;78;21151;-45
2021/04/25 01:04:40;;;;;;;0.00;0.00;;;;;;;-1.47;77.76;101201.16;1790902;80;21115;-45
2021/04/25 01:07:08;;;;;;;0.03;0.03;;;;;;;-1.52;77.85;101199.02;1781150;80;21119;-45
2021/04/25 01:09:35;;;;;;;0.00;0.00;;;;;;;-1.55;77.95;101196.70;1736202;80;21135;-45
2021/04/25 01:12:03;;;;;;;0.03;0.03;;;;;;;-1.59;78.08;101203.43;1790984;80;21578;-45
2021/04/25 01:14:30;;;;;;;0.00;0.00;;;;;;;-1.62;78.17;101197.09;1791220;80;21158;-45
2021/04/25 01:16:59;;;;;;;0.70;0.70;;;;;;;-1.66;78.31;101194.44;1791006;80;21115;-45
2021/04/25 01:19:26;;;;;;;0.13;0.13;;;;;;;-1.69;78.46;101199.66;1801170;78;21190;-45
2021/04/25 01:21:53;;;;;;;0.10;0.10;;;;;;;-1.72;78.67;101194.67;1810881;78;21407;-45
2021/04/25 01:24:21;;;;;;;0.00;0.00;;;;;;;-1.75;78.83;101183.80;1818252;78;21114;-45
2021/04/25 01:26:48;;;;;;;0.00;0.00;;;;;;;-1.77;78.93;101185.83;1819735;78;21685;-46
2021/04/25 01:29:16;;;;;;;0.10;0.10;;;;;;;-1.81;79.02;101187.19;1808841;78;21115;-45
2021/04/25 01:31:44;;;;;;;0.00;0.00;;;;;;;-1.86;79.15;101181.53;1819447;78;21129;-45
2021/04/25 01:34:12;;;;;;;0.10;0.10;;;;;;;-1.89;79.32;101184.58;1820193;78;21112;-45
2021/04/25 01:36:39;;;;;;;0.37;0.37;;;;;;;-1.92;79.44;101178.25;1819544;77;21127;-45
2021/04/25 01:39:06;;;;;;;0.00;0.00;;;;;;;-1.97;79.76;101177.45;1819922;78;21506;-45
2021/04/25 01:41:34;;;;;;;0.10;0.10;;;;;;;-2.02;80.05;101176.33;1819918;78;21212;-45
2021/04/25 01:44:03;;;;;;;0.28;0.28;;;;;;;-2.08;80.28;101167.65;1819979;78;21454;-45
2021/04/25 01:46:30;;;;;;;0.10;0.10;;;;;;;-2.14;80.52;101172.40;1820131;78;21106;-45
2021/04/25 01:48:59;;;;;;;0.00;0.00;;;;;;;-2.21;80.69;101170.92;1820032;78;21972;-45
2021/04/25 01:51:26;;;;;;;0.00;0.00;;;;;;;-2.27;81.01;101175.67;1819971;78;21564;-45
2021/04/25 01:53:54;;;;;;;0.00;0.00;;;;;;;-2.33;81.25;101179.04;1820427;78;21158;-45
2021/04/25 01:56:21;;;;;;;0.00;0.00;;;;;;;-2.38;81.35;101171.53;1823544;78;21638;-45
2021/04/25 01:58:50;;;;;;;0.10;0.10;;;;;;;-2.42;81.47;101179.61;1823753;78;21080;-45
2021/04/25 02:01:17;;;;;;;0.10;0.10;;;;;;;-2.46;81.66;101173.75;1823663;78;21130;-45
2021/04/25 02:03:45;;;;;;;0.10;0.10;;;;;;;-2.49;81.86;101171.95;1823870;78;20985;-45
2021/04/25 02:06:13;;;;;;;0.00;0.00;;;;;;;-2.52;82.03;101172.28;1789481;80;21108;-45
2021/04/25 02:08:41;;;;;;;0.10;0.10;;;;;;;-2.54;82.26;101171.64;1812801;78;21526;-45
2021/04/25 02:11:08;;;;;;;0.03;0.03;;;;;;;-2.55;82.40;101177.98;1793890;78;21602;-45
2021/04/25 02:13:36;;;;;;;0.10;0.10;;;;;;;-2.54;82.54;101174.32;1799787;78;21538;-45
2021/04/25 02:16:05;;;;;;;0.10;0.10;;;;;;;-2.57;82.67;101176.84;1822903;78;21431;-45
2021/04/25 02:18:33;;;;;;;0.00;0.00;;;;;;;-2.57;82.77;101177.33;1823481;78;21132;-45
2021/04/25 02:21:00;;;;;;;0.17;0.17;;;;;;;-2.61;82.90;101178.19;1823536;78;21179;-45
2021/04/25 02:23:28;;;;;;;0.10;0.10;;;;;;;-2.65;83.01;101176.35;1823337;78;21416;-45
2021/04/25 02:25:55;;;;;;;0.03;0.03;;;;;;;-2.66;83.18;101173.36;1821716;78;21146;-45
2021/04/25 02:28:23;;;;;;;0.10;0.10;;;;;;;-2.67;83.35;101175.72;1807538;78;21167;-45
2021/04/25 02:30:50;;;;;;;0.10;0.10;;;;;;;-2.69;83.45;101172.38;1823215;78;21108;-45
2021/04/25 02:33:18;;;;;;;0.65;0.53;;;;;;;-2.69;83.62;101178.24;1823403;78;21167;-45
2021/04/25 02:35:45;;;;;;;0.00;0.00;;;;;;;-2.69;83.76;101168.37;1820482;78;21122;-45
2021/04/25 02:38:13;;;;;;;0.10;0.10;;;;;;;-2.67;83.95;101169.52;1821310;78;21202;-45
2021/04/25 02:40:40;;;;;;;0.10;0.10;;;;;;;-2.67;84.11;101173.05;1821756;78;21170;-45
2021/04/25 02:43:08;;;;;;;0.25;0.25;;;;;;;-2.66;84.15;101172.02;1818905;78;21232;-45
2021/04/25 02:45:35;;;;;;;0.30;0.30;;;;;;;-2.68;84.39;101178.05;1791138;80;21124;-45
2021/04/25 02:48:06;;;;;;;0.20;0.20;;;;;;;-2.70;84.54;101176.05;1820461;78;21144;-45
2021/04/25 02:50:37;;;;;;;0.17;0.17;;;;;;;-2.71;84.65;101178.92;1823591;78;21605;-45
2021/04/25 02:53:05;;;;;;;0.10;0.10;;;;;;;-2.74;84.90;101177.42;1823498;78;21188;-45
2021/04/25 02:55:32;;;;;;;0.10;0.10;;;;;;;-2.73;85.16;101173.73;1820882;78;21526;-45
2021/04/25 02:58:03;;;;;;;0.37;0.37;;;;;;;-2.69;85.42;101177.73;1816759;78;21137;-45
2021/04/25 03:00:29;;;;;;;0.20;0.20;;;;;;;-2.64;85.57;101185.23;1814209;77;21138;-45
2021/04/25 03:02:58;;;;;;;0.00;0.00;;;;;;;-2.57;85.77;101181.34;1811393;79;21113;-45
2021/04/25 03:05:26;;;;;;;0.00;0.00;;;;;;;-2.52;86.00;101171.80;1809934;78;21162;-45
2021/04/25 03:07:53;;;;;;;0.00;0.00;;;;;;;-2.46;86.14;101175.60;1796348;79;21127;-45
2021/04/25 03:10:21;;;;;;;0.13;0.13;;;;;;;-2.40;86.29;101165.03;1813498;79;21143;-45
2021/04/25 03:12:51;;;;;;;0.33;0.33;;;;;;;-2.32;86.39;101168.67;1813771;78;21159;-45
2021/04/25 03:15:19;;;;;;;0.35;0.35;;;;;;;-2.25;86.53;101172.28;1778828;79;21171;-45
2021/04/25 03:17:47;;;;;;;0.20;0.20;;;;;;;-2.18;86.70;101167.89;1813777;77;21150;-45
2021/04/25 03:20:17;;;;;;;0.00;0.00;;;;;;;-2.11;86.83;101159.47;1808759;79;21384;-45
2021/04/25 03:22:45;;;;;;;0.00;0.00;;;;;;;-2.03;87.10;101163.45;1808510;78;21578;-45
2021/04/25 03:25:13;;;;;;;0.10;0.10;;;;;;;-1.93;87.31;101171.72;1809262;78;21174;-45
2021/04/25 03:27:40;;;;;;;0.30;0.30;;;;;;;-1.83;87.49;101159.77;1815040;78;21178;-45
2021/04/25 03:30:10;;;;;;;0.25;0.20;;;;;;;-1.69;87.77;101165.34;1820109;78;21130;-45
2021/04/25 03:32:37;;;;;;;0.30;0.30;;;;;;;-1.59;87.79;101165.91;1819070;78;21139;-45
2021/04/25 03:35:07;;;;;;;0.00;0.00;;;;;;;-1.50;87.80;101166.16;1817220;78;21602;-45
2021/04/25 03:37:36;;;;;;;0.68;0.68;;;;;;;-1.36;87.73;101165.84;1806535;78;21096;-45
2021/04/25 03:40:06;;;;;;;0.10;0.10;;;;;;;-1.25;87.51;101170.77;1807492;78;21065;-45
2021/04/25 03:42:34;;;;;;;0.23;0.20;;;;;;;-1.13;87.34;101161.24;1799943;79;21131;-45
2021/04/25 03:45:01;;;;;;;0.88;0.88;;;;;;;-1.00;87.26;101160.59;1800032;79;21597;-45
2021/04/25 03:47:29;;;;;;;0.10;0.10;;;;;;;-0.89;87.14;101161.47;1814594;78;21099;-45
2021/04/25 03:49:56;;;;;;;0.00;0.00;;;;;;;-0.82;86.92;101162.87;1814772;79;21126;-45
2021/04/25 03:52:24;;;;;;;0.00;0.00;;;;;;;-0.76;86.73;101157.30;1816488;78;21157;-45
2021/04/25 03:54:51;;;;;;;0.03;0.03;;;;;;;-0.66;86.83;101155.97;1780216;79;21174;-45
2021/04/25 03:57:18;;;;;;;0.03;0.03;;;;;;;-0.35;87.14;101160.74;1814615;79;21505;-45
2021/04/25 03:59:45;;;;;;;0.08;0.08;;;;;;;0.03;87.08;101163.22;1814701;79;21110;-45
2021/04/25 04:02:13;;;;;;;0.10;0.10;;;;;;;0.43;86.85;101167.89;1796919;79;21572;-46
2021/04/25 04:04:40;;;;;;;0.15;0.15;;;;;;;0.82;86.36;101161.13;1795021;79;21166;-46
2021/04/25 04:07:08;;;;;;;0.35;0.35;;;;;;;1.16;85.83;101159.43;1809461;79;21122;-45
2021/04/25 04:09:35;;;;;;;0.10;0.10;;;;;;;1.45;85.37;101165.56;1815332;78;21389;-45
2021/04/25 04:12:03;;;;;;;0.00;0.00;;;;;;;1.68;85.12;101167.91;1814949;79;21434;-46
2021/04/25 04:14:30;;;;;;;0.00;0.00;;;;;;;1.90;84.52;101164.55;1814806;79;21453;-46
2021/04/25 04:16:58;;;;;;;0.00;0.00;;;;;;;2.17;83.41;101161.89;1814621;79;21126;-46
2021/04/25 04:19:25;;;;;;;0.00;0.00;;;;;;;2.46;82.09;101162.01;1813366;79;21039;-45
2021/04/25 04:21:53;;;;;;;0.10;0.10;;;;;;;2.70;80.74;101164.06;1806790;79;21158;-46
2021/04/25 04:24:20;;;;;;;0.10;0.10;;;;;;;2.90;79.62;101168.07;1814952;79;21426;-46
2021/04/25 04:26:48;;;;;;;0.10;0.10;;;;;;;3.07;78.35;101158.17;1806148;78;21091;-46
2021/04/25 04:29:15;;;;;;;0.10;0.10;;;;;;;3.19;76.33;101155.09;1811522;79;21160;-46
2021/04/25 04:31:43;;;;;;;0.13;0.13;;;;;;;3.28;75.39;101150.30;1814483;79;21185;-46
2021/04/25 04:34:10;;;;;;;0.10;0.10;;;;;;;3.35;74.55;101153.28;1795923;79;21378;-46
2021/04/25 04:36:38;;;;;;;0.57;0.57;;;;;;;3.48;73.49;101158.31;1796732;79;21110;-46
2021/04/25 04:39:06;;;;;;;0.10;0.10;;;;;;;3.64;72.47;101149.72;1782768;79;21473;-45
2021/04/25 04:41:33;;;;;;;0.23;0.23;;;;;;;3.86;71.55;101157.80;1772909;79;21560;-46
2021/04/25 04:44:01;;;;;;;0.00;0.00;;;;;;;4.12;70.87;101151.89;1833582;78;21087;-45
2021/04/25 04:46:28;;;;;;;0.30;0.30;;;;;;;4.42;69.37;101149.89;1830932;77;21133;-45
2021/04/25 04:48:55;;;;;;;0.00;0.00;;;;;;;4.67;67.39;101144.45;1766041;80;21138;-46
2021/04/25 04:51:23;;;;;;;0.00;0.00;;;;;;;4.87;66.04;101153.22;1797455;79;21170;-45
2021/04/25 04:53:50;;;;;;;0.10;0.10;;;;;;;5.01;65.16;101149.01;1764217;79;21181;-46
2021/04/25 04:56:18;;;;;;;0.10;0.10;;;;;;;5.09;64.48;101140.03;1789192;78;21122;-46
2021/04/25 04:58:46;;;;;;;0.57;0.57;;;;;;;5.21;63.80;101143.36;1783522;80;21161;-46
2021/04/25 05:01:13;;;;;;;0.00;0.00;;;;;;;5.31;63.03;101148.53;1783578;80;21115;-46
2021/04/25 05:03:42;;;;;;;0.00;0.00;;;;;;;5.44;62.72;101142.14;1782870;80;21158;-46
2021/04/25 05:06:10;;;;;;;0.00;0.00;;;;;;;5.58;62.53;101143.59;1774731;80;21142;-45
2021/04/25 05:08:37;;;;;;;0.10;0.10;;;;;;;5.75;61.91;101143.78;1784337;80;20963;-46
2021/04/25 05:11:05;;;;;;;1.65;0.30;;;;;;;5.94;61.33;101145.95;1784332;80;21147;-46
2021/04/25 05:13:32;;;;;;;0.00;0.00;;;;;;;6.14;60.24;101146.19;1784132;80;21564;-46
2021/04/25 05:16:00;;;;;;;0.10;0.10;;;;;;;6.32;59.55;101142.02;1784402;80;21102;-46
2021/04/25 05:18:28;;;;;;;0.10;0.10;;;;;;;6.51;58.37;101141.39;1781267;80;21147;-46
2021/04/25 05:20:55;;;;;;;0.00;0.00;;;;;;;6.71;57.26;101138.86;1772200;80;21186;-46
2021/04/25 05:23:23;;;;;;;0.00;0.00;;;;;;;6.89;56.46;101132.73;1728998;80;21142;-46
2021/04/25 05:25:51;;;;;;;0.13;0.13;;;;;;;7.07;55.39;101125.00;1780951;80;21171;-46
2021/04/25 05:28:18;;;;;;;0.23;0.23;;;;;;;7.23;54.94;101120.69;1781867;80;21443;-46
2021/04/25 05:30:46;;;;;;;0.30;0.20;;;;;;;7.39;54.27;101122.34;1782039;80;21613;-46
2021/04/25 05:33:14;;;;;;;0.00;0.00;;;;;;;7.55;53.98;101118.87;1755808;80;21716;-46
2021/04/25 05:35:41;;;;;;;0.10;0.10;;;;;;;7.74;52.89;101110.80;1746235;80;21131;-46
2021/04/25 05:38:09;;;;;;;0.05;0.05;;;;;;;7.96;52.64;101114.16;1787066;80;21199;-46
2021/04/25 05:40:36;;;;;;;0.68;0.68;;;;;;;8.22;52.05;101117.33;1769368;80;21451;-46
2021/04/25 05:43:06;;;;;;;0.00;0.00;;;;;;;8.49;50.32;101113.43;1780457;80;21516;-46
2021/04/25 05:45:34;;;;;;;0.00;0.00;;;;;;;8.70;49.99;101113.99;1780388;80;21451;-47
2021/04/25 05:48:01;;;;;;;0.42;0.42;;;;;;;8.88;48.66;101119.72;1751998;80;21187;-46
2021/04/25 05:50:30;;;;;;;0.53;0.28;;;;;;;8.94;48.00;101117.33;1768652;80;21105;-46
2021/04/25 05:52:57;;;;;;;0.15;0.15;;;;;;;8.94;47.67;101110.52;1767705;80;21112;-46
2021/04/25 05:55:25;;;;;;;0.20;0.20;;;;;;;8.91;47.88;101118.39;1780068;79;21440;-46
2021/04/25 05:57:52;;;;;;;0.17;0.17;;;;;;;8.85;48.41;101109.30;1773739;80;21447;-46
2021/04/25 06:00:24;;;;;;;0.10;0.10;;;;;;;8.84;48.45;101100.84;1732690;80;21680;-46
2021/04/25 06:02:54;;;;;;;0.20;0.20;;;;;;;8.89;47.96;101105.00;1729948;82;21454;-46
2021/04/25 06:05:21;;;;;;;0.00;0.00;;;;;;;8.94;47.60;101099.62;1730239;82;21193;-46
2021/04/25 06:07:51;;;;;;;0.05;0.05;;;;;;;8.99;46.71;101105.13;1745772;80;22245;-46
2021/04/25 06:10:19;;;;;;;0.10;0.10;;;;;;;9.07;46.56;101100.31;1768490;80;21146;-46
2021/04/25 06:12:49;;;;;;;0.30;0.30;;;;;;;9.21;47.12;101096.14;1730015;82;21163;-46
2021/04/25 06:15:18;;;;;;;0.10;0.10;;;;;;;9.40;47.08;101098.00;1703193;82;21140;-46
2021/04/25 06:17:45;;;;;;;0.23;0.10;;;;;;;9.57;46.36;101092.44;1778597;80;21173;-46
2021/04/25 06:20:13;;;;;;;0.70;0.70;;;;;;;9.62;45.96;101089.78;1759053;81;21789;-46
2021/04/25 06:22:41;;;;;;;0.10;0.10;;;;;;;9.58;44.53;101094.91;1758847;81;21693;-46
2021/04/25 06:25:10;;;;;;;0.03;0.03;;;;;;;9.51;44.61;101088.84;1747467;80;21199;-46
2021/04/25 06:27:40;;;;;;;0.00;0.00;;;;;;;9.45;44.31;101087.97;1763289;80;21118;-46
2021/04/25 06:30:09;;;;;;;0.03;0.03;;;;;;;9.46;44.57;101090.97;1777194;80;21073;-46
2021/04/25 06:32:37;;;;;;;0.75;0.05;;;;;;;9.62;44.44;101095.24;1777268;80;21159;-46
2021/04/25 06:35:06;;;;;;;1.52;0.28;;;;;;;9.82;44.45;101094.07;1761621;80;21485;-47
2021/04/25 06:37:34;;;;;;;0.37;0.25;;;;;;;9.96;44.82;101085.44;1760589;80;21138;-47
2021/04/25 06:40:04;;;;;;;1.45;0.30;;;;;;;10.00;43.99;101089.31;1760397;80;21015;-47
2021/04/25 06:42:31;;;;;;;0.23;0.23;;;;;;;10.04;44.13;101095.36;1740127;81;21499;-46
2021/04/25 06:44:59;;;;;;;0.53;0.53;;;;;;;10.08;43.63;101092.92;1740268;80;21143;-46
2021/04/25 06:47:26;;;;;;;0.00;0.00;;;;;;;10.14;43.44;101093.27;1760580;80;21166;-46
2021/04/25 06:49:54;;;;;;;1.25;0.42;;;;;;;10.20;43.29;101092.75;1769223;80;21111;-46
2021/04/25 06:52:21;;;;;;;0.00;0.00;;;;;;;10.33;43.30;101088.23;1773145;80;21178;-47
2021/04/25 06:54:49;;;;;;;0.30;0.30;;;;;;;10.54;43.39;101087.84;1778987;80;21612;-46
2021/04/25 06:57:16;;;;;;;0.13;0.10;;;;;;;10.71;42.00;101085.76;1787856;80;21119;-46
2021/04/25 06:59:43;;;;;;;0.13;0.13;;;;;;;10.86;42.53;101083.65;1794695;78;21136;-46
2021/04/25 07:02:13;;;;;;;0.10;0.10;;;;;;;11.06;41.13;101089.75;1790364;80;21150;-46
2021/04/25 07:04:40;;;;;;;0.20;0.05;;;;;;;11.26;41.56;101073.15;1812839;78;21556;-46
2021/04/25 07:07:09;;;;;;;0.10;0.10;;;;;;;11.44;41.63;101074.01;1800873;79;21636;-46
2021/04/25 07:09:38;;;;;;;1.75;0.70;;;;;;;11.67;41.20;101078.70;1779893;79;21118;-46
2021/04/25 07:12:07;;;;;;;0.30;0.30;;;;;;;11.84;40.57;101073.80;1732407;81;21138;-46
2021/04/25 07:14:35;;;;;;;0.45;0.37;;;;;;;11.93;40.01;101068.64;1811014;79;21135;-46
2021/04/25 07:17:03;;;;;;;2.37;0.88;;;;;;;11.91;39.50;101075.75;1806450;78;21113;-46
2021/04/25 07:19:32;;;;;;;0.20;0.20;;;;;;;11.83;40.06;101072.16;1809282;79;21141;-46
2021/04/25 07:21:59;;;;;;;0.10;0.10;;;;;;;11.76;40.11;101079.27;1809044;79;22348;-46
2021/04/25 07:24:26;;;;;;;0.00;0.00;;;;;;;11.71;40.43;101080.63;1814706;79;21151;-46
2021/04/25 07:26:54;;;;;;;0.23;0.15;;;;;;;11.76;40.03;101067.50;1802891;79;21137;-46
2021/04/25 07:29:21;;;;;;;0.30;0.20;;;;;;;11.89;40.35;101066.98;1776828;80;21439;-46
2021/04/25 07:31:49;;;;;;;0.25;0.20;;;;;;;12.05;40.31;101059.05;1800909;78;21088;-46
2021/04/25 07:34:17;;;;;;;0.90;0.42;;;;;;;12.22;39.93;101062.07;1779472;79;21150;-46
2021/04/25 07:36:44;;;;;;;0.00;0.00;;;;;;;12.36;39.75;101067.79;1787434;80;21182;-46
2021/04/25 07:39:12;;;;;;;0.30;0.30;;;;;;;12.48;38.61;101069.13;1760366;80;21155;-46
2021/04/25 07:41:40;;;;;;;0.60;0.60;;;;;;;12.47;38.16;101061.20;1791504;80;21143;-46
2021/04/25 07:44:07;;;;;;;0.20;0.20;;;;;;;12.27;38.59;101055.22;1791556;80;21584;-46
2021/04/25 07:46:35;;;;;;;0.53;0.13;;;;;;;12.10;38.17;101046.46;1787638;80;21146;-46
2021/04/25 07:49:03;;;;;;;1.50;0.93;;;;;;;12.04;38.70;101047.84;1789483;78;21569;-46
2021/04/25 07:51:31;;;;;;;1.27;0.53;;;;;;;12.04;39.11;101046.47;1788949;80;21451;-46
2021/04/25 07:53:59;;;;;;;0.72;0.50;;;;;;;12.07;39.17;101057.94;1769474;80;21146;-46
2021/04/25 07:56:27;;;;;;;0.25;0.25;;;;;;;11.93;38.84;101048.92;1765196;79;21137;-46
2021/04/25 07:58:54;;;;;;;0.85;0.85;;;;;;;11.75;39.33;101050.81;1759589;81;21198;-46
2021/04/25 08:01:22;;;;;;;0.60;0.60;;;;;;;11.62;39.47;101036.56;1760694;80;21199;-46
2021/04/25 08:03:49;;;;;;;0.82;0.72;;;;;;;11.54;39.88;101042.55;1763478;80;21502;-46
2021/04/25 08:06:16;;;;;;;0.35;0.35;;;;;;;11.51;40.09;101039.00;1758975;80;21162;-46
2021/04/25 08:08:44;;;;;;;0.37;0.37;;;;;;;11.50;40.30;101046.09;1746911;81;21129;-46
2021/04/25 08:11:11;;;;;;;1.60;0.47;;;;;;;11.53;40.54;101036.00;1770412;81;21144;-46
2021/04/25 08:13:39;;;;;;;0.15;0.15;;;;;;;11.57;40.77;101028.34;1775754;79;21454;-46
2021/04/25 08:16:06;;;;;;;0.20;0.20;;;;;;;11.59;40.48;101027.50;1785813;79;21705;-46
2021/04/25 08:18:34;;;;;;;0.20;0.20;;;;;;;11.57;40.49;101035.19;1730203;79;21159;-46
2021/04/25 08:21:02;;;;;;;1.10;0.10;;;;;;;11.58;40.00;101024.50;1771944;79;21505;-47
2021/04/25 08:23:29;;;;;;;0.15;0.15;;;;;;;11.59;39.79;101022.03;1764042;81;21166;-47
2021/04/25 08:25:56;;;;;;;0.10;0.10;;;;;;;11.67;39.39;101022.06;1760985;79;21143;-46
2021/04/25 08:28:24;;;;;;;1.10;0.40;;;;;;;11.75;39.11;101016.59;1771617;80;21146;-47
2021/04/25 08:30:52;;;;;;;0.33;0.30;;;;;;;11.80;38.98;101017.41;1771376;81;21131;-47
2021/04/25 08:33:20;;;;;;;0.20;0.20;;;;;;;11.85;38.97;101016.58;1771242;81;21158;-47
2021/04/25 08:35:48;;;;;;;1.27;0.70;;;;;;;11.92;39.19;101014.95;1771192;81;21112;-47
2021/04/25 08:38:15;;;;;;;0.20;0.15;;;;;;;12.08;39.07;101011.67;1773678;79;21560;-46
2021/04/25 08:40:42;;;;;;;0.80;0.33;;;;;;;12.26;38.45;101005.59;1772082;79;21181;-46
2021/04/25 08:43:12;;;;;;;0.00;0.00;;;;;;;12.37;38.12;101010.53;1742523;79;21651;-46
2021/04/25 08:45:41;;;;;;;1.65;0.60;;;;;;;12.45;37.63;101001.17;1795322;79;21164;-46
2021/04/25 08:48:11;;;;;;;0.65;0.65;;;;;;;12.59;38.45;101016.50;1795456;79;21482;-46
2021/04/25 08:50:47;;;;;;;0.13;0.10;;;;;;;12.78;37.55;100998.05;1847825;76;22683;-45
2021/04/25 08:53:15;;;;;;;1.65;0.65;;;;;;;12.78;37.65;101011.20;1785811;78;21129;-44
2021/04/25 08:55:44;;;;;;;1.25;0.57;;;;;;;12.77;37.77;101011.50;1783119;78;21109;-45
2021/04/25 08:58:18;;;;;;;0.33;0.10;;;;;;;12.72;37.74;101008.78;1782455;78;21661;-45
2021/04/25 09:00:46;;;;;;;0.65;0.30;;;;;;;12.69;37.78;101008.78;1753877;80;21141;-45
2021/04/25 09:03:14;;;;;;;0.62;0.62;;;;;;;12.67;36.70;101002.20;1785900;80;21141;-45
2021/04/25 09:05:43;;;;;;;0.75;0.35;;;;;;;12.54;36.53;101009.66;1758088;80;21162;-44
2021/04/25 09:08:10;;;;;;;1.55;0.40;;;;;;;12.47;36.22;100998.98;1719096;82;21224;-45
2021/04/25 09:10:41;;;;;;;0.20;0.20;;;;;;;12.50;36.62;100998.16;1721154;83;21194;-45
2021/04/25 09:13:19;;;;;;;1.22;0.60;;;;;;;12.66;36.98;100986.86;1751006;81;21298;-45
2021/04/25 09:15:48;;;;;;;0.57;0.57;;;;;;;12.84;37.00;100988.15;1730537;80;21138;-45
2021/04/25 09:18:16;;;;;;;0.98;0.90;;;;;;;12.95;36.45;100986.16;1733349;81;21183;-45
2021/04/25 09:20:50;;;;;;;0.40;0.30;;;;;;;12.95;36.22;100987.54;1724166;82;21106;-44
2021/04/25 09:23:26;;;;;;;0.93;0.50;;;;;;;12.81;35.63;100981.02;1714155;82;21139;-44
2021/04/25 09:25:58;;;;;;;3.30;3.00;;;;;;;12.60;35.71;100985.78;1725460;81;21745;-45
2021/04/25 09:28:26;;;;;;;6.50;3.25;;;;;;;12.51;35.92;100991.56;1731176;82;21086;-45
2021/04/25 09:31:06;;;;;;;4.42;1.65;;;;;;;12.58;35.59;100982.49;1787669;80;21724;-45
2021/04/25 09:33:55;;;;;;;9.03;5.30;;;;;;;12.78;36.04;100974.17;1663142;84;21183;-45
2021/04/25 09:36:24;;;;;;;12.50;4.62;;;;;;;13.02;35.42;100963.92;1695663;84;21178;-44
2021/04/25 09:38:53;;;;;;;11.45;4.08;;;;;;;13.10;35.53;100956.45;1713124;83;21203;-45
2021/04/25 09:41:32;;;;;;;14.07;8.13;;;;;;;13.12;34.46;100967.97;1720284;83;21159;-45
2021/04/25 09:44:00;;;;;;;7.97;6.00;;;;;;;13.15;35.39;100976.19;1746729;80;21133;-45
2021/04/25 09:46:53;;;;;;;2.52;2.12;;;;;;;13.31;35.72;100977.21;1759964;80;21157;-45
2021/04/25 09:49:48;;;;;;;11.45;3.83;;;;;;;13.52;35.53;100972.94;1739295;80;21146;-44
2021/04/25 09:52:37;;;;;;;0.93;0.45;;;;;;;13.75;35.43;100968.09;1730251;81;21158;-45
2021/04/25 09:55:27;;;;;;;9.55;3.45;;;;;;;13.90;35.24;100958.08;1730467;82;21142;-45
2021/04/25 09:57:58;;;;;;;3.70;2.20;;;;;;;13.89;34.95;100961.36;1730604;82;21125;-45
2021/04/25 10:00:47;;;;;;;6.47;1.72;;;;;;;13.91;34.38;100961.89;1721834;83;21132;-44
2021/04/25 10:03:12;;;;;;;8.13;4.47;;;;;;;13.87;34.63;100958.64;1744546;81;21652;-45
2021/04/25 10:06:04;;;;;;;5.45;1.98;;;;;;;13.92;34.13;100955.84;1731109;81;21134;-45
2021/04/25 10:08:36;;;;;;;4.55;3.15;;;;;;;14.09;33.86;100949.91;1784713;80;21121;-45
2021/04/25 10:11:05;;;;;;;3.72;2.25;;;;;;;14.13;33.63;100929.80;1740624;81;21561;-45
2021/04/25 10:13:44;;;;;;;2.47;1.92;;;;;;;14.18;33.80;100931.12;1729721;81;21176;-45
2021/04/25 10:16:08;;;;;;;0.20;0.20;;;;;;;14.30;33.21;100931.28;1727500;83;21184;-45
2021/04/25 10:18:35;;;;;;;0.47;0.47;;;;;;;14.38;33.79;100941.63;1699356;83;21436;-45
2021/04/25 10:21:04;;;;;;;0.60;0.57;;;;;;;14.35;33.45;100932.03;1728073;82;21116;-45
2021/04/25 10:23:33;;;;;;;0.40;0.20;;;;;;;14.35;33.14;100928.47;1719167;81;21540;-45
2021/04/25 10:26:01;;;;;;;0.60;0.42;;;;;;;14.38;33.34;100933.38;1750467;81;21615;-45
2021/04/25 10:28:48;;;;;;;1.37;1.27;;;;;;;14.44;33.19;100932.75;1750591;81;21153;-45
2021/04/25 10:31:21;;;;;;;0.40;0.40;;;;;;;14.40;33.09;100935.28;1750320;81;21086;-45
2021/04/25 10:34:01;;;;;;;1.35;0.60;;;;;;;14.32;33.10;100935.94;1721341;81;21106;-45
2021/04/25 10:39:56;;;;;;;0.13;0.13;;;;;;;14.12;33.88;100929.55;1861938;76;22736;-45
2021/04/25 10:42:26;;;;;;;0.37;0.30;;;;;;;14.13;34.11;100930.36;1793016;78;21171;-45
2021/04/25 10:45:03;;;;;;;0.25;0.25;;;;;;;14.37;33.06;100934.50;1816487;77;21126;-45
2021/04/25 10:47:37;;;;;;;0.10;0.10;;;;;;;14.58;31.95;100918.58;1819752;78;21514;-45
2021/04/25 10:50:29;;;;;;;0.13;0.08;;;;;;;14.73;32.01;100920.31;1818561;78;21145;-45
2021/04/25 10:53:01;;;;;;;0.00;0.00;;;;;;;14.96;32.47;100915.86;1821461;77;21118;-45
2021/04/25 10:55:30;;;;;;;0.10;0.10;;;;;;;15.24;31.36;100923.71;1825361;77;22334;-46
2021/04/25 10:58:08;;;;;;;1.07;0.70;;;;;;;15.27;30.98;100919.78;1824168;78;21130;-45
2021/04/25 11:00:39;;;;;;;0.82;0.33;;;;;;;15.25;31.61;100918.45;1826260;77;21135;-46
2021/04/25 11:03:13;;;;;;;1.00;0.40;;;;;;;15.26;31.08;100931.11;1826365;78;21465;-45
2021/04/25 11:05:43;;;;;;;2.37;0.65;;;;;;;15.18;30.92;100920.76;1778396;80;21095;-45
2021/04/25 11:08:32;;;;;;;0.10;0.10;;;;;;;15.12;31.77;100924.16;1822997;78;21210;-45
2021/04/25 11:11:10;;;;;;;0.20;0.20;;;;;;;15.18;31.62;100909.75;1823635;78;21175;-46
2021/04/25 11:13:47;;;;;;;0.10;0.10;;;;;;;15.21;31.49;100906.42;1771364;80;21498;-45
2021/04/25 11:16:24;;;;;;;1.40;0.53;;;;;;;15.26;31.71;100902.21;1773662;80;21222;-45
2021/04/25 11:19:06;;;;;;;0.68;0.68;;;;;;;15.36;31.61;100904.80;1763435;79;21158;-45
2021/04/25 11:21:50;;;;;;;0.15;0.15;;;;;;;15.38;31.06;100898.43;1763828;81;21150;-45
2021/04/25 11:24:26;;;;;;;1.92;0.62;;;;;;;15.27;30.33;100891.45;1763964;79;21174;-45
2021/04/25 11:26:57;;;;;;;1.17;0.85;;;;;;;15.09;31.01;100890.92;1763896;81;21153;-45
2021/04/25 11:29:50;;;;;;;0.20;0.20;;;;;;;15.19;31.25;100879.75;1763921;79;21146;-45
2021/04/25 11:32:26;;;;;;;0.80;0.50;;;;;;;15.45;32.15;100887.85;1762946;81;21163;-45
2021/04/25 11:35:01;;;;;;;0.17;0.17;;;;;;;15.76;30.92;100883.77;1815376;79;21120;-45
2021/04/25 11:37:29;;;;;;;0.20;0.17;;;;;;;15.82;30.72;100881.97;1815315;78;21747;-45
2021/04/25 11:40:02;;;;;;;0.20;0.20;;;;;;;15.79;30.74;100878.45;1818452;78;21107;-45